Time;durP1;ratioP1;P1;durP2;ratioP2;P2;SDS_P1;SDS_P2;PMS_P1;PMS_P2;Temp;Humidity;BMP_temperature;BMP_pressure;BME280_temperature;BME280_humidity;BME280_pressure;Samples;Min_cycle;Max_cycle;Signal;HPM_P1;HPM_P2
2022/10/01 00:01:42;;;;;;;12.10;9.05;;;18.00;98.30;;;;;;5069774;28;20032;-64
2022/10/01 00:04:08;;;;;;;12.43;9.75;;;18.00;98.40;;;;;;5072464;28;20086;-64
2022/10/01 00:06:34;;;;;;;12.23;9.70;;;18.00;98.40;;;;;;5071729;28;20028;-64
2022/10/01 00:08:59;;;;;;;13.10;9.95;;;18.00;98.40;;;;;;5068549;28;20029;-64
2022/10/01 00:11:25;;;;;;;12.07;9.75;;;18.00;98.40;;;;;;5067825;28;20394;-64
2022/10/01 00:13:52;;;;;;;11.85;9.70;;;17.90;98.40;;;;;;5070208;28;20032;-64
2022/10/01 00:16:24;;;;;;;11.68;8.70;;;18.00;98.40;;;;;;5071444;28;20016;-64
2022/10/01 00:18:52;;;;;;;12.70;9.48;;;18.00;98.40;;;;;;5071841;28;20025;-64
2022/10/01 00:21:24;;;;;;;12.60;9.95;;;18.00;98.40;;;;;;5073691;28;20054;-64
2022/10/01 00:24:01;;;;;;;11.43;9.73;;;17.90;98.40;;;;;;5071670;28;20036;-64
2022/10/01 00:26:31;;;;;;;11.38;8.35;;;17.90;98.30;;;;;;5069165;28;20083;-64
2022/10/01 00:28:59;;;;;;;12.15;9.48;;;17.90;98.50;;;;;;5071493;28;20484;-64
2022/10/01 00:31:26;;;;;;;11.23;8.68;;;17.90;98.50;;;;;;5079716;28;20012;-64
2022/10/01 00:33:52;;;;;;;12.63;9.30;;;17.80;98.60;;;;;;5074193;28;20023;-64
2022/10/01 00:36:19;;;;;;;10.27;8.75;;;17.80;98.50;;;;;;5069932;28;20017;-64
2022/10/01 00:38:46;;;;;;;12.48;9.65;;;17.90;98.50;;;;;;5069504;28;20119;-64
2022/10/01 00:41:12;;;;;;;11.50;9.27;;;17.80;98.40;;;;;;5070211;28;20021;-64
2022/10/01 00:43:42;;;;;;;12.73;9.30;;;17.80;98.40;;;;;;5068418;28;20047;-64
2022/10/01 00:46:28;;;;;;;12.77;9.88;;;17.80;98.40;;;;;;5066008;28;20107;-64
2022/10/01 00:48:57;;;;;;;11.90;9.65;;;17.80;98.30;;;;;;5070744;28;20035;-64
2022/10/01 00:51:24;;;;;;;11.52;9.52;;;17.80;98.60;;;;;;5066785;28;20028;-64
2022/10/01 00:53:50;;;;;;;11.05;9.35;;;17.80;98.60;;;;;;5066040;28;20063;-64
2022/10/01 00:56:17;;;;;;;11.38;9.25;;;17.80;98.50;;;;;;5069708;28;20103;-64
2022/10/01 00:58:43;;;;;;;11.93;9.75;;;17.80;98.50;;;;;;5060306;28;20031;-64
2022/10/01 01:01:09;;;;;;;12.85;9.80;;;17.70;98.40;;;;;;5068842;28;20028;-64
2022/10/01 01:03:34;;;;;;;11.80;9.95;;;17.80;98.30;;;;;;5070652;28;20060;-64
2022/10/01 01:06:00;;;;;;;12.63;9.07;;;17.70;98.30;;;;;;5063026;28;20430;-64
2022/10/01 01:08:25;;;;;;;11.70;8.98;;;17.70;98.30;;;;;;5070167;28;20039;-65
2022/10/01 01:10:58;;;;;;;11.48;8.88;;;17.70;98.20;;;;;;5068156;28;20024;-64
2022/10/01 01:13:49;;;;;;;11.32;8.85;;;17.70;98.20;;;;;;5067000;28;20021;-64
2022/10/01 01:16:28;;;;;;;10.82;8.50;;;17.60;98.00;;;;;;5067830;28;20108;-64
2022/10/01 01:19:22;;;;;;;11.75;9.02;;;17.60;98.20;;;;;;5070619;28;20079;-64
2022/10/01 01:21:54;;;;;;;10.18;8.05;;;17.60;98.20;;;;;;5062379;28;20021;-64
2022/10/01 01:24:54;;;;;;;10.95;8.32;;;17.50;98.30;;;;;;5070449;28;20107;-64
2022/10/01 01:27:27;;;;;;;9.18;7.25;;;17.60;98.10;;;;;;5060117;28;20048;-64
2022/10/01 01:29:56;;;;;;;10.15;8.52;;;17.60;98.30;;;;;;5073608;28;20047;-64
2022/10/01 01:32:47;;;;;;;11.63;8.85;;;17.50;98.50;;;;;;5065481;28;20024;-64
2022/10/01 01:35:30;;;;;;;10.10;8.65;;;17.50;97.90;;;;;;5070636;28;20061;-64
2022/10/01 01:38:06;;;;;;;9.70;7.97;;;17.50;97.80;;;;;;5060152;28;20447;-64
2022/10/01 01:40:35;;;;;;;11.95;9.57;;;17.50;97.80;;;;;;5065173;28;20031;-64
2022/10/01 01:43:04;;;;;;;11.98;9.98;;;17.40;97.70;;;;;;5070425;28;20058;-64
2022/10/01 01:45:34;;;;;;;14.32;11.20;;;17.40;97.60;;;;;;5069751;28;20107;-64
2022/10/01 01:48:01;;;;;;;14.88;11.68;;;17.40;97.50;;;;;;5067484;28;20072;-64
2022/10/01 01:50:33;;;;;;;12.68;9.63;;;17.30;97.30;;;;;;5069426;28;20024;-64
2022/10/01 01:52:59;;;;;;;14.95;12.05;;;17.30;97.20;;;;;;5062463;28;20060;-64
2022/10/01 01:55:29;;;;;;;12.38;10.98;;;17.30;97.20;;;;;;5060349;28;20413;-64
2022/10/01 01:57:56;;;;;;;10.63;9.50;;;17.30;97.20;;;;;;5070380;28;20532;-64
2022/10/01 02:00:21;;;;;;;12.85;10.05;;;17.30;97.30;;;;;;5068152;28;20025;-64
2022/10/01 02:02:51;;;;;;;13.30;9.65;;;17.30;97.70;;;;;;5075475;28;20031;-64
2022/10/01 02:05:27;;;;;;;11.35;9.73;;;17.30;97.40;;;;;;5067880;28;20033;-64
2022/10/01 02:08:00;;;;;;;12.98;9.90;;;17.20;97.30;;;;;;5068355;28;20024;-64
2022/10/01 02:10:47;;;;;;;11.18;9.30;;;17.20;97.20;;;;;;5069362;28;20077;-64
2022/10/01 02:13:47;;;;;;;10.48;9.15;;;17.20;97.30;;;;;;5063889;28;20095;-64
2022/10/01 02:16:36;;;;;;;12.23;8.98;;;17.20;97.00;;;;;;5067482;28;20502;-64
2022/10/01 02:19:20;;;;;;;11.43;8.95;;;17.20;96.80;;;;;;5069558;28;20127;-64
2022/10/01 02:21:57;;;;;;;10.65;9.05;;;17.10;96.60;;;;;;5069476;28;20024;-64
2022/10/01 02:24:32;;;;;;;11.20;9.07;;;17.10;96.60;;;;;;5069336;28;20033;-65
2022/10/01 02:27:02;;;;;;;13.00;9.85;;;17.00;96.60;;;;;;5070340;28;20110;-64
2022/10/01 02:29:28;;;;;;;13.48;10.25;;;17.00;96.80;;;;;;5069636;28;20032;-64
2022/10/01 02:31:56;;;;;;;11.35;9.43;;;17.00;96.90;;;;;;5068618;28;20036;-64
2022/10/01 02:34:26;;;;;;;10.73;9.13;;;17.00;97.00;;;;;;5069754;28;20101;-64
2022/10/01 02:36:54;;;;;;;11.05;8.93;;;17.00;97.00;;;;;;5069472;28;20024;-64
2022/10/01 02:39:24;;;;;;;12.95;9.57;;;17.00;97.00;;;;;;5068998;28;20032;-64
2022/10/01 02:41:52;;;;;;;11.35;8.90;;;17.00;97.00;;;;;;5069691;28;20437;-64
2022/10/01 02:44:22;;;;;;;10.85;8.95;;;16.90;96.90;;;;;;5069146;28;20386;-64
2022/10/01 02:47:00;;;;;;;13.45;9.50;;;17.00;97.00;;;;;;5068763;28;20032;-64
2022/10/01 02:49:27;;;;;;;13.10;9.63;;;17.00;96.90;;;;;;5060677;28;20027;-64
2022/10/01 02:52:04;;;;;;;12.85;9.98;;;17.00;97.40;;;;;;5069502;28;20017;-64
2022/10/01 02:54:42;;;;;;;12.25;10.10;;;17.00;97.10;;;;;;5058603;28;20051;-64
2022/10/01 02:57:23;;;;;;;12.20;9.80;;;16.90;96.90;;;;;;5069060;28;20017;-64
2022/10/01 02:59:50;;;;;;;12.45;10.15;;;16.90;96.80;;;;;;5068485;28;20494;-64
2022/10/01 03:02:16;;;;;;;12.48;9.32;;;17.00;96.70;;;;;;5065739;28;20063;-64
2022/10/01 03:04:41;;;;;;;14.70;10.48;;;17.00;96.60;;;;;;5065254;28;20028;-64
2022/10/01 03:07:07;;;;;;;14.95;10.82;;;16.90;96.50;;;;;;5073068;28;20468;-64
2022/10/01 03:09:35;;;;;;;13.15;10.35;;;16.90;96.50;;;;;;5073324;28;20036;-64
2022/10/01 03:12:01;;;;;;;12.13;9.60;;;16.90;96.50;;;;;;5072663;28;20476;-64
2022/10/01 03:14:27;;;;;;;11.15;9.18;;;17.00;96.70;;;;;;5072145;28;20036;-64
2022/10/01 03:16:53;;;;;;;11.25;8.75;;;17.00;96.70;;;;;;5072785;28;20020;-64
2022/10/01 03:19:19;;;;;;;12.27;9.32;;;17.00;96.80;;;;;;5072932;28;20036;-64
2022/10/01 03:21:45;;;;;;;10.80;8.93;;;17.00;96.80;;;;;;5068410;28;20032;-64
2022/10/01 03:24:11;;;;;;;10.02;8.00;;;16.90;96.80;;;;;;5072757;28;20461;-64
2022/10/01 03:26:36;;;;;;;10.05;8.38;;;16.90;96.80;;;;;;5071145;28;20418;-64
2022/10/01 03:29:03;;;;;;;10.65;8.27;;;16.90;97.00;;;;;;5067839;28;20082;-64
2022/10/01 03:31:28;;;;;;;10.02;7.95;;;16.90;97.20;;;;;;5066189;28;20044;-64
2022/10/01 03:33:54;;;;;;;10.82;8.98;;;16.90;97.10;;;;;;5072971;28;20064;-64
2022/10/01 03:36:20;;;;;;;11.13;8.85;;;16.90;97.20;;;;;;5072299;28;20550;-64
2022/10/01 03:38:46;;;;;;;11.50;8.90;;;17.00;97.40;;;;;;5072896;28;20035;-64
2022/10/01 03:41:11;;;;;;;10.88;8.68;;;16.90;97.40;;;;;;5070416;28;20032;-64
2022/10/01 03:43:37;;;;;;;11.48;8.65;;;17.00;97.40;;;;;;5072727;28;20037;-64
2022/10/01 03:46:02;;;;;;;11.35;8.55;;;17.00;97.50;;;;;;5077501;28;20183;-64
2022/10/01 03:48:28;;;;;;;10.18;8.48;;;17.00;97.50;;;;;;5072248;28;20027;-64
2022/10/01 03:50:56;;;;;;;10.18;8.50;;;17.00;97.40;;;;;;5069973;28;20081;-64
2022/10/01 03:53:23;;;;;;;11.52;9.48;;;17.00;97.40;;;;;;5072308;28;20025;-65
2022/10/01 03:55:49;;;;;;;11.57;8.10;;;17.00;97.50;;;;;;5072193;28;20020;-64
2022/10/01 03:58:15;;;;;;;10.75;8.30;;;17.00;97.60;;;;;;5072414;28;20100;-64
2022/10/01 04:00:43;;;;;;;8.95;7.22;;;17.00;97.60;;;;;;5067093;28;20048;-64
2022/10/01 04:03:08;;;;;;;9.73;7.85;;;17.00;97.60;;;;;;5072233;28;20024;-64
2022/10/01 04:05:34;;;;;;;10.18;7.60;;;17.00;97.70;;;;;;5069250;28;20021;-64
2022/10/01 04:08:00;;;;;;;9.68;7.63;;;17.00;97.70;;;;;;5072325;28;20029;-64
2022/10/01 04:10:25;;;;;;;10.73;7.30;;;17.00;97.80;;;;;;5070451;28;20467;-64
2022/10/01 04:12:51;;;;;;;10.68;8.30;;;17.00;97.80;;;;;;5066212;28;20522;-64
2022/10/01 04:15:17;;;;;;;10.27;7.90;;;17.00;97.80;;;;;;5071188;28;20025;-64
2022/10/01 04:17:42;;;;;;;9.60;7.82;;;17.10;97.80;;;;;;5072150;28;20058;-64
2022/10/01 04:20:08;;;;;;;9.73;7.20;;;17.10;97.90;;;;;;5075429;28;20033;-64
2022/10/01 04:22:41;;;;;;;10.02;7.97;;;17.10;97.90;;;;;;5071815;28;20029;-64
2022/10/01 04:25:10;;;;;;;8.50;7.03;;;17.10;97.90;;;;;;5071458;28;20476;-64
2022/10/01 04:27:40;;;;;;;10.85;8.85;;;17.20;98.00;;;;;;5072030;28;20028;-64
2022/10/01 04:30:08;;;;;;;9.93;7.65;;;17.20;98.00;;;;;;5070290;28;20074;-64
2022/10/01 04:32:34;;;;;;;9.57;7.53;;;17.20;98.00;;;;;;5066792;28;20120;-64
2022/10/01 04:35:01;;;;;;;8.60;7.05;;;17.20;98.00;;;;;;5071495;28;20070;-64
2022/10/01 04:37:27;;;;;;;10.77;8.10;;;17.30;98.10;;;;;;5073122;28;20044;-64
2022/10/01 04:39:53;;;;;;;10.13;8.20;;;17.30;97.90;;;;;;5069808;28;20025;-64
2022/10/01 04:42:20;;;;;;;11.13;8.48;;;17.30;97.80;;;;;;5068365;28;20048;-64
2022/10/01 04:44:46;;;;;;;10.27;7.95;;;17.30;97.90;;;;;;5069261;28;20040;-64
2022/10/01 04:47:12;;;;;;;11.38;8.52;;;17.40;98.00;;;;;;5066647;28;20025;-64
2022/10/01 04:49:38;;;;;;;11.20;8.77;;;17.40;98.00;;;;;;5068710;28;20530;-64
2022/10/01 04:52:04;;;;;;;10.27;8.82;;;17.40;98.00;;;;;;5068119;28;20020;-64
2022/10/01 04:54:30;;;;;;;10.93;8.93;;;17.50;98.00;;;;;;5070995;28;20357;-64
2022/10/01 04:56:57;;;;;;;10.10;8.68;;;17.50;98.10;;;;;;5070995;28;20020;-64
2022/10/01 04:59:23;;;;;;;12.18;8.35;;;17.60;98.10;;;;;;5070727;28;20480;-64
2022/10/01 05:01:48;;;;;;;9.82;8.13;;;17.60;98.20;;;;;;5058573;28;20027;-64
2022/10/01 05:04:14;;;;;;;10.50;8.18;;;17.60;98.10;;;;;;5070612;28;20430;-64
2022/10/01 05:06:40;;;;;;;9.65;7.80;;;17.60;98.00;;;;;;5070901;28;20027;-64
2022/10/01 05:09:06;;;;;;;10.13;8.43;;;17.70;97.70;;;;;;5068429;28;20070;-64
2022/10/01 05:11:33;;;;;;;10.18;7.47;;;17.70;97.40;;;;;;5065487;28;20027;-64
2022/10/01 05:13:59;;;;;;;9.05;7.22;;;17.80;97.20;;;;;;5062566;28;20074;-64
2022/10/01 05:16:25;;;;;;;8.48;6.85;;;17.80;97.20;;;;;;5068679;28;20029;-64
2022/10/01 05:18:51;;;;;;;9.75;7.25;;;17.90;97.30;;;;;;5069072;28;20367;-64
2022/10/01 05:21:16;;;;;;;8.75;7.20;;;17.90;97.20;;;;;;5068689;28;20506;-64
2022/10/01 05:23:42;;;;;;;9.10;6.82;;;18.00;97.00;;;;;;5069014;28;20029;-64
2022/10/01 05:26:08;;;;;;;9.00;7.10;;;18.00;96.90;;;;;;5069345;28;20036;-64
2022/10/01 05:28:34;;;;;;;8.00;6.40;;;18.10;96.90;;;;;;5070710;28;20028;-64
2022/10/01 05:31:02;;;;;;;8.63;6.55;;;18.10;96.80;;;;;;5064647;28;20055;-64
2022/10/01 05:33:29;;;;;;;9.02;6.45;;;18.20;96.50;;;;;;5069923;28;20032;-64
2022/10/01 05:35:55;;;;;;;6.45;5.53;;;18.20;96.40;;;;;;5070566;28;20459;-64
2022/10/01 05:38:21;;;;;;;7.82;5.70;;;18.30;96.20;;;;;;5070502;28;20029;-64
2022/10/01 05:40:47;;;;;;;7.05;5.80;;;18.40;96.10;;;;;;5066614;28;20101;-64
2022/10/01 05:43:13;;;;;;;7.68;5.68;;;18.40;96.00;;;;;;5069997;28;20052;-64
2022/10/01 05:45:39;;;;;;;7.18;5.88;;;18.40;95.60;;;;;;5067537;28;20108;-64
2022/10/01 05:48:07;;;;;;;8.90;5.90;;;18.40;95.40;;;;;;5069876;28;20020;-64
2022/10/01 05:50:38;;;;;;;6.95;5.65;;;18.50;95.30;;;;;;5069943;28;20032;-64
2022/10/01 05:53:04;;;;;;;7.40;5.72;;;18.50;95.30;;;;;;5067420;28;20021;-64
2022/10/01 05:55:36;;;;;;;7.45;5.88;;;18.50;95.80;;;;;;5069041;28;20031;-64
2022/10/01 05:58:09;;;;;;;8.95;5.90;;;18.60;96.20;;;;;;5070445;28;20027;-64
2022/10/01 06:00:35;;;;;;;7.38;5.88;;;18.80;96.60;;;;;;5067831;28;20021;-64
2022/10/01 06:03:02;;;;;;;7.10;5.88;;;19.10;96.00;;;;;;5070068;28;20033;-64
2022/10/01 06:05:29;;;;;;;7.82;6.25;;;19.40;95.40;;;;;;5070051;28;20041;-64
2022/10/01 06:07:55;;;;;;;9.55;6.28;;;19.60;94.70;;;;;;5070197;28;20020;-64
2022/10/01 06:10:21;;;;;;;7.00;5.90;;;19.80;94.90;;;;;;5069609;28;20117;-64
2022/10/01 06:12:47;;;;;;;6.95;5.40;;;20.10;94.30;;;;;;5062362;28;20270;-64
2022/10/01 06:15:14;;;;;;;6.85;5.60;;;20.30;93.50;;;;;;5065427;28;20031;-64
2022/10/01 06:17:43;;;;;;;7.72;5.65;;;20.50;92.50;;;;;;5061782;28;20349;-64
2022/10/01 06:20:16;;;;;;;6.43;5.25;;;20.60;91.70;;;;;;5056844;28;20025;-64
2022/10/01 06:22:42;;;;;;;6.88;5.55;;;20.60;91.50;;;;;;5067220;28;20039;-66
2022/10/01 06:25:14;;;;;;;5.65;4.75;;;20.60;91.20;;;;;;5068605;28;20515;-65
2022/10/01 06:27:40;;;;;;;7.07;5.47;;;20.60;91.20;;;;;;5066827;28;20370;-64
2022/10/01 06:30:06;;;;;;;6.63;5.75;;;20.50;91.10;;;;;;5060470;28;20029;-64
2022/10/01 06:32:33;;;;;;;7.18;5.38;;;20.50;91.30;;;;;;5063451;28;20029;-65
2022/10/01 06:34:59;;;;;;;7.90;5.93;;;20.40;91.40;;;;;;5051245;28;20060;-64
2022/10/01 06:37:24;;;;;;;7.68;5.75;;;20.30;91.50;;;;;;5062276;28;20052;-65
2022/10/01 06:39:50;;;;;;;7.25;6.28;;;20.30;91.70;;;;;;5065239;28;20016;-64
2022/10/01 06:42:15;;;;;;;6.25;5.40;;;20.30;91.90;;;;;;5063627;28;20060;-64
2022/10/01 06:44:41;;;;;;;6.70;5.78;;;20.30;91.90;;;;;;5059915;28;20049;-64
2022/10/01 06:47:07;;;;;;;8.82;6.78;;;20.20;92.00;;;;;;5062729;28;20472;-64
2022/10/01 06:49:33;;;;;;;8.18;6.45;;;20.20;92.10;;;;;;5064036;28;20044;-65
2022/10/01 06:54:44;;;;;;;7.32;5.70;;;20.20;92.20;;;;;;5062555;28;20036;-65
2022/10/01 06:57:10;;;;;;;6.57;5.18;;;20.20;92.30;;;;;;5060923;28;20028;-64
2022/10/01 06:59:36;;;;;;;6.15;4.95;;;20.20;92.20;;;;;;5064096;28;20044;-64
2022/10/01 07:02:02;;;;;;;6.53;5.80;;;20.20;92.10;;;;;;5053953;28;20104;-64
2022/10/01 07:04:28;;;;;;;6.60;5.43;;;20.20;92.00;;;;;;5053780;28;20442;-64
2022/10/01 07:06:54;;;;;;;6.65;5.22;;;20.20;91.80;;;;;;5043928;28;20028;-65
2022/10/01 07:09:25;;;;;;;6.97;5.10;;;20.20;91.80;;;;;;5056333;28;20051;-64
2022/10/01 07:11:52;;;;;;;6.63;5.15;;;20.20;91.70;;;;;;5052178;28;20056;-63
2022/10/01 07:14:19;;;;;;;6.10;4.82;;;20.20;91.40;;;;;;5052521;28;20025;-65
2022/10/01 07:16:44;;;;;;;5.13;4.28;;;20.20;91.10;;;;;;5056472;28;20035;-65
2022/10/01 07:19:10;;;;;;;5.47;4.63;;;20.20;91.10;;;;;;5059743;28;20475;-65
2022/10/01 07:21:36;;;;;;;5.50;4.30;;;20.20;91.00;;;;;;5051538;28;20571;-65
2022/10/01 07:24:02;;;;;;;5.18;3.97;;;20.20;90.90;;;;;;5057260;28;20089;-65
2022/10/01 07:26:28;;;;;;;6.05;4.15;;;20.20;90.80;;;;;;5054912;28;20116;-64
2022/10/01 07:28:54;;;;;;;4.75;4.22;;;20.20;90.30;;;;;;5056345;28;20475;-64
2022/10/01 07:31:22;;;;;;;5.18;3.88;;;20.20;90.20;;;;;;5055209;28;20033;-64
2022/10/01 07:33:48;;;;;;;5.22;3.88;;;20.20;90.10;;;;;;5058621;28;20036;-64
2022/10/01 07:36:14;;;;;;;4.65;3.78;;;20.20;90.10;;;;;;5058727;28;20024;-65
2022/10/01 07:38:42;;;;;;;5.00;3.55;;;20.30;90.00;;;;;;5057880;28;20192;-64
2022/10/01 07:41:09;;;;;;;4.32;3.50;;;20.30;89.60;;;;;;5058084;28;21084;-64
2022/10/01 07:43:35;;;;;;;4.10;3.28;;;20.30;89.40;;;;;;5055225;28;20552;-64
2022/10/01 07:46:02;;;;;;;3.63;3.25;;;20.40;89.10;;;;;;5057947;28;20029;-65
2022/10/01 07:48:27;;;;;;;3.67;3.25;;;20.40;89.60;;;;;;5053231;28;20060;-66
2022/10/01 07:50:53;;;;;;;4.18;2.78;;;20.40;88.60;;;;;;5059791;28;20211;-65
2022/10/01 07:53:19;;;;;;;3.70;3.30;;;20.40;88.30;;;;;;5053386;28;20890;-65
2022/10/01 07:55:45;;;;;;;5.00;3.15;;;20.50;88.20;;;;;;5054167;28;20977;-65
2022/10/01 07:58:11;;;;;;;5.57;3.60;;;20.50;88.00;;;;;;5056974;28;20028;-64
2022/10/01 08:00:37;;;;;;;4.18;3.60;;;20.50;87.70;;;;;;5053243;28;20025;-64
2022/10/01 08:03:04;;;;;;;4.70;3.58;;;20.50;87.40;;;;;;5048360;28;20136;-66
2022/10/01 08:05:34;;;;;;;3.78;3.20;;;20.50;87.40;;;;;;5053805;28;20649;-66
2022/10/01 08:08:02;;;;;;;6.47;2.97;;;20.50;87.40;;;;;;5049242;28;20060;-66
2022/10/01 08:10:28;;;;;;;3.55;3.00;;;20.50;87.50;;;;;;5051354;28;20483;-65
2022/10/01 08:13:07;;;;;;;3.97;3.08;;;20.50;87.50;;;;;;5059874;28;20024;-66
2022/10/01 08:15:33;;;;;;;3.75;3.22;;;20.50;87.40;;;;;;5059703;28;20017;-65
2022/10/01 08:18:03;;;;;;;3.17;2.88;;;20.50;87.40;;;;;;5053793;28;20543;-66
2022/10/01 08:20:28;;;;;;;4.00;3.15;;;20.60;87.20;;;;;;5057641;28;20090;-65
2022/10/01 08:23:00;;;;;;;3.55;2.85;;;20.60;87.20;;;;;;5057279;28;20665;-65
2022/10/01 08:25:26;;;;;;;3.75;2.85;;;20.60;87.20;;;;;;5056398;28;20036;-65
2022/10/01 08:27:52;;;;;;;3.40;3.00;;;20.70;87.00;;;;;;5060807;28;20039;-65
2022/10/01 08:30:17;;;;;;;4.03;3.22;;;20.70;86.80;;;;;;5061373;28;20976;-65
2022/10/01 08:32:43;;;;;;;3.92;3.20;;;20.80;86.60;;;;;;5069085;28;20058;-66
2022/10/01 08:35:09;;;;;;;3.97;3.17;;;20.80;86.50;;;;;;5072800;28;20067;-65
2022/10/01 08:37:34;;;;;;;3.88;3.15;;;20.80;86.40;;;;;;5069767;28;20032;-66
2022/10/01 08:40:00;;;;;;;4.20;3.50;;;20.90;86.50;;;;;;5065772;28;20059;-66
2022/10/01 08:42:54;;;;;;;4.22;3.20;;;20.90;86.40;;;;;;5060897;28;20024;-65
2022/10/01 08:45:33;;;;;;;4.25;3.50;;;20.90;86.20;;;;;;5066735;28;20396;-65
2022/10/01 08:48:18;;;;;;;3.97;3.30;;;20.90;85.90;;;;;;5065544;28;20017;-66
2022/10/01 08:51:03;;;;;;;3.17;2.80;;;20.90;85.80;;;;;;5065174;28;20032;-65
2022/10/01 08:53:39;;;;;;;4.28;3.25;;;20.80;85.80;;;;;;5060123;28;20025;-64
2022/10/01 08:56:08;;;;;;;3.97;3.33;;;20.80;85.70;;;;;;5044555;28;20463;-65
2022/10/01 08:58:45;;;;;;;4.68;3.22;;;20.80;85.70;;;;;;5044882;28;20270;-65
2022/10/01 09:01:11;;;;;;;3.60;3.25;;;20.80;86.00;;;;;;5046559;28;20055;-65
2022/10/01 09:03:39;;;;;;;5.10;3.40;;;20.80;86.10;;;;;;5052358;28;20040;-65
2022/10/01 09:06:21;;;;;;;5.13;3.90;;;20.80;86.30;;;;;;5053650;28;20032;-65
2022/10/01 09:09:09;;;;;;;4.57;3.70;;;20.90;86.30;;;;;;5048323;28;20078;-65
2022/10/01 09:11:58;;;;;;;5.35;3.85;;;21.00;85.90;;;;;;5047603;28;20108;-65
2022/10/01 09:14:32;;;;;;;4.93;3.50;;;21.00;85.70;;;;;;5047751;28;20027;-65
2022/10/01 09:17:13;;;;;;;4.47;3.60;;;21.00;85.60;;;;;;5055487;28;20033;-65
2022/10/01 09:19:56;;;;;;;5.00;3.53;;;21.10;85.50;;;;;;5058398;28;20085;-66
2022/10/01 09:22:26;;;;;;;4.57;3.88;;;21.10;85.40;;;;;;5058322;28;20035;-65
2022/10/01 09:25:09;;;;;;;5.40;4.07;;;21.10;85.40;;;;;;5056948;28;20025;-66
2022/10/01 09:27:36;;;;;;;5.32;4.05;;;21.10;85.20;;;;;;5051409;28;20039;-65
2022/10/01 09:30:15;;;;;;;4.95;3.90;;;21.10;85.20;;;;;;5055979;28;20441;-66
2022/10/01 09:32:43;;;;;;;4.90;3.85;;;21.10;85.00;;;;;;5059515;28;20029;-66
2022/10/01 09:35:29;;;;;;;5.35;3.92;;;21.10;85.00;;;;;;5055507;28;20024;-65
2022/10/01 09:38:16;;;;;;;4.13;3.63;;;21.00;84.90;;;;;;5058710;28;20016;-64
2022/10/01 09:40:49;;;;;;;4.93;3.83;;;21.00;84.90;;;;;;5058441;28;20135;-66
2022/10/01 09:43:18;;;;;;;6.15;4.32;;;21.00;85.00;;;;;;5051128;28;20499;-65
2022/10/01 09:45:46;;;;;;;5.25;3.95;;;21.00;85.00;;;;;;5050815;28;20043;-65
2022/10/01 09:48:30;;;;;;;5.13;4.50;;;20.90;84.80;;;;;;5053818;28;20020;-65
2022/10/01 09:51:17;;;;;;;5.75;4.30;;;20.90;84.90;;;;;;5049273;28;20025;-65
2022/10/01 09:54:01;;;;;;;5.05;3.80;;;20.90;85.10;;;;;;5051529;28;20031;-65
2022/10/01 09:56:32;;;;;;;5.05;4.03;;;20.80;85.00;;;;;;5055366;28;20034;-66
2022/10/01 09:59:03;;;;;;;5.32;4.20;;;20.80;85.00;;;;;;5055731;28;20024;-65
2022/10/01 10:01:43;;;;;;;6.05;4.47;;;20.80;85.20;;;;;;5049948;28;20025;-65
2022/10/01 10:04:10;;;;;;;5.32;4.20;;;20.80;85.30;;;;;;5050478;28;20052;-66
2022/10/01 10:06:37;;;;;;;4.80;3.60;;;20.80;85.40;;;;;;5050141;28;20041;-65
2022/10/01 10:09:03;;;;;;;4.50;3.90;;;20.80;85.50;;;;;;5044212;28;20411;-65
2022/10/01 10:11:30;;;;;;;5.93;4.40;;;20.80;85.50;;;;;;5050083;28;20029;-65
2022/10/01 10:14:13;;;;;;;4.53;4.03;;;20.70;85.60;;;;;;5059860;28;20033;-65
2022/10/01 10:16:46;;;;;;;5.47;4.30;;;20.70;85.60;;;;;;5061486;28;20021;-65
2022/10/01 10:19:22;;;;;;;4.75;3.95;;;20.70;85.60;;;;;;5059255;28;20056;-65
2022/10/01 10:22:18;;;;;;;4.97;3.97;;;20.70;85.70;;;;;;5060036;28;20172;-65
2022/10/01 10:24:43;;;;;;;5.00;3.72;;;20.70;85.50;;;;;;5054353;28;20070;-65
2022/10/01 10:27:29;;;;;;;5.53;4.05;;;20.70;85.70;;;;;;5057098;28;20032;-64
2022/10/01 10:30:14;;;;;;;6.07;3.90;;;20.70;85.60;;;;;;5057656;28;20028;-66
2022/10/01 10:32:41;;;;;;;5.93;4.90;;;20.70;85.70;;;;;;5055440;28;20025;-65
2022/10/01 10:35:12;;;;;;;6.00;4.68;;;20.70;85.80;;;;;;5053718;28;20492;-70
2022/10/01 10:37:45;;;;;;;5.97;4.60;;;20.70;85.90;;;;;;5054259;28;20759;-65
2022/10/01 10:40:24;;;;;;;6.50;5.22;;;20.70;85.80;;;;;;5061753;28;20036;-65
2022/10/01 10:42:52;;;;;;;5.00;3.95;;;20.60;85.70;;;;;;5059882;28;20083;-65
2022/10/01 10:45:32;;;;;;;5.07;3.90;;;20.60;85.90;;;;;;5067846;28;20040;-65
2022/10/01 10:47:58;;;;;;;4.85;3.70;;;20.60;86.10;;;;;;5066549;28;20073;-65
2022/10/01 10:50:35;;;;;;;4.50;3.80;;;20.60;86.40;;;;;;5063637;28;20025;-65
2022/10/01 10:53:20;;;;;;;4.95;4.07;;;20.60;86.30;;;;;;5058226;28;20063;-65
2022/10/01 10:56:01;;;;;;;6.10;3.63;;;20.60;86.10;;;;;;5062032;28;20398;-64
2022/10/01 10:58:28;;;;;;;5.35;4.18;;;20.60;86.00;;;;;;5065245;28;20473;-65
2022/10/01 11:00:58;;;;;;;5.05;3.80;;;20.70;86.10;;;;;;5059018;28;20059;-65
2022/10/01 11:03:27;;;;;;;5.75;4.53;;;20.70;86.00;;;;;;5056046;28;20111;-64
2022/10/01 11:05:59;;;;;;;5.75;4.57;;;20.70;86.00;;;;;;5057663;28;20028;-65
2022/10/01 11:08:27;;;;;;;6.32;4.93;;;20.70;85.90;;;;;;5055277;28;20400;-65
2022/10/01 11:11:19;;;;;;;5.47;4.07;;;20.70;85.80;;;;;;5059523;28;20036;-66
2022/10/01 11:14:20;;;;;;;5.22;4.40;;;20.70;85.70;;;;;;5062574;28;20021;-65
2022/10/01 11:16:49;;;;;;;;;;;20.80;85.50;;;;;;5059848;28;20033;-65
2022/10/01 11:19:17;;;;;;;4.32;3.92;;;20.70;85.30;;;;;;5061316;28;19912;-65
2022/10/01 11:22:10;;;;;;;5.07;3.67;;;20.80;85.20;;;;;;5062836;28;20024;-64
2022/10/01 11:25:13;;;;;;;4.13;3.60;;;20.80;84.80;;;;;;5058099;28;20032;-66
2022/10/01 11:28:06;;;;;;;4.70;3.40;;;20.80;84.60;;;;;;5066273;28;20037;-66
2022/10/01 11:31:01;;;;;;;3.10;2.75;;;20.90;84.50;;;;;;5059639;28;20025;-65
2022/10/01 11:33:35;;;;;;;4.47;3.30;;;20.90;84.40;;;;;;5017998;28;20041;-65
2022/10/01 11:36:37;;;;;;;3.78;3.03;;;21.00;84.40;;;;;;5061323;28;20086;-65
2022/10/01 11:39:17;;;;;;;3.15;2.83;;;21.00;84.30;;;;;;5057451;28;20010;-65
2022/10/01 11:41:44;;;;;;;2.55;2.30;;;21.00;84.20;;;;;;5051795;28;20021;-65
2022/10/01 11:44:39;;;;;;;2.38;2.17;;;21.00;84.20;;;;;;5057538;28;20053;-65
2022/10/01 11:47:45;;;;;;;2.08;1.88;;;21.10;84.00;;;;;;5058940;28;20038;-65
2022/10/01 11:50:20;;;;;;;1.95;1.75;;;21.10;83.80;;;;;;5062365;28;20032;-65
2022/10/01 11:53:15;;;;;;;1.77;1.67;;;21.20;83.40;;;;;;5058617;28;20088;-65
2022/10/01 11:58:56;;;;;;;1.70;1.50;;;21.40;83.00;;;;;;5058052;28;20036;-64
2022/10/01 12:01:35;;;;;;;1.35;1.25;;;21.40;81.60;;;;;;5058438;28;20037;-65
2022/10/01 12:04:17;;;;;;;1.60;1.50;;;21.50;81.40;;;;;;5061625;28;20052;-66
2022/10/01 12:07:11;;;;;;;1.40;1.30;;;21.60;80.90;;;;;;5054127;28;20081;-66
2022/10/01 12:10:02;;;;;;;1.48;1.38;;;21.60;80.60;;;;;;5043199;28;20080;-66
2022/10/01 12:12:32;;;;;;;1.10;1.08;;;21.70;80.10;;;;;;5054478;28;20020;-66
2022/10/01 12:15:18;;;;;;;1.30;1.20;;;21.80;79.70;;;;;;5057536;28;20392;-65
2022/10/01 12:17:51;;;;;;;1.42;1.08;;;21.80;79.30;;;;;;5056782;28;20166;-65
2022/10/01 12:20:40;;;;;;;1.25;1.20;;;21.90;78.80;;;;;;5056761;28;20108;-66
2022/10/01 12:23:13;;;;;;;1.88;1.50;;;22.00;78.40;;;;;;5052478;28;20029;-66
2022/10/01 12:25:50;;;;;;;4.13;1.45;;;22.00;77.80;;;;;;5054586;28;20024;-65
2022/10/01 12:28:26;;;;;;;1.50;1.40;;;22.00;77.30;;;;;;5049501;28;20523;-65
2022/10/01 12:31:01;;;;;;;1.30;1.20;;;22.10;77.00;;;;;;5056486;28;20047;-64
2022/10/01 12:33:54;;;;;;;1.35;1.30;;;22.20;76.80;;;;;;5060109;28;20035;-65
2022/10/01 12:36:52;;;;;;;1.20;1.10;;;22.20;76.60;;;;;;5051091;28;20730;-65
2022/10/01 12:39:26;;;;;;;1.20;1.10;;;22.30;76.30;;;;;;5041051;28;20072;-65
2022/10/01 12:42:08;;;;;;;1.45;1.35;;;22.30;76.70;;;;;;5054233;28;20123;-65
2022/10/01 12:44:50;;;;;;;1.63;1.52;;;22.30;75.80;;;;;;5053764;28;20041;-64
2022/10/01 12:47:24;;;;;;;1.48;1.30;;;22.40;75.50;;;;;;5051216;28;20922;-66
2022/10/01 12:50:11;;;;;;;1.65;1.55;;;22.40;75.40;;;;;;5061335;28;20542;-65
2022/10/01 12:53:01;;;;;;;1.40;1.30;;;22.50;75.40;;;;;;5060391;28;20032;-65
2022/10/01 12:55:39;;;;;;;1.05;1.05;;;22.50;75.20;;;;;;5045340;28;20441;-65
2022/10/01 12:58:17;;;;;;;1.35;1.25;;;22.50;75.10;;;;;;5056207;28;20165;-64
2022/10/01 13:01:24;;;;;;;1.58;1.48;;;22.60;74.90;;;;;;5055334;28;20032;-64
2022/10/01 13:04:08;;;;;;;1.40;1.30;;;22.60;74.80;;;;;;5055794;28;20171;-65
2022/10/01 13:06:40;;;;;;;0.88;0.88;;;22.60;74.40;;;;;;5062038;28;20040;-66
2022/10/01 13:09:15;;;;;;;1.40;1.30;;;22.60;74.20;;;;;;5066344;28;20043;-66
2022/10/01 13:12:00;;;;;;;1.67;1.45;;;22.60;74.10;;;;;;5063650;28;20028;-64
2022/10/01 13:14:27;;;;;;;1.23;1.13;;;22.50;73.90;;;;;;5060572;28;20111;-64